Time;durP1;ratioP1;P1;durP2;ratioP2;P2;SDS_P1;SDS_P2;PMS_P1;PMS_P2;Temp;Humidity;BMP_temperature;BMP_pressure;BME280_temperature;BME280_humidity;BME280_pressure;Samples;Min_cycle;Max_cycle;Signal;HPM_P1;HPM_P2
2022/03/09 00:00:08;;;;;;;7.68;3.20;;;4.20;83.40;;;;;;5065332;28;20033;-71
2022/03/09 00:02:33;;;;;;;6.75;3.20;;;4.20;82.70;;;;;;5034024;28;20041;-71
2022/03/09 00:04:59;;;;;;;7.65;3.00;;;4.10;82.10;;;;;;5035207;28;20528;-71
2022/03/09 00:07:27;;;;;;;7.47;3.00;;;4.00;83.40;;;;;;5034688;28;20056;-71
2022/03/09 00:09:53;;;;;;;5.35;2.65;;;4.00;83.80;;;;;;5029156;28;20044;-71
2022/03/09 00:12:19;;;;;;;6.30;2.83;;;3.90;84.10;;;;;;5065595;28;20048;-71
2022/03/09 00:14:45;;;;;;;5.65;2.72;;;4.00;84.20;;;;;;5051867;28;20044;-71
2022/03/09 00:17:10;;;;;;;7.25;3.17;;;4.00;83.90;;;;;;5051456;28;20036;-71
2022/03/09 00:19:36;;;;;;;6.90;3.17;;;3.90;84.90;;;;;;5068507;28;20037;-71
2022/03/09 00:22:02;;;;;;;6.03;3.03;;;3.90;85.20;;;;;;5051137;28;20025;-71
2022/03/09 00:24:27;;;;;;;6.55;3.17;;;3.90;84.80;;;;;;5052021;28;20091;-71
2022/03/09 00:26:53;;;;;;;7.78;3.30;;;3.90;84.40;;;;;;5067960;28;20057;-71
2022/03/09 00:29:18;;;;;;;7.88;3.70;;;3.90;84.50;;;;;;5068503;28;20505;-71
2022/03/09 00:31:44;;;;;;;7.00;3.22;;;3.80;84.90;;;;;;5050579;28;20041;-71
2022/03/09 00:34:10;;;;;;;7.38;3.33;;;3.80;85.00;;;;;;5034113;28;20433;-71
2022/03/09 00:36:36;;;;;;;8.73;3.42;;;3.70;85.70;;;;;;5033859;28;20053;-71
2022/03/09 00:39:03;;;;;;;8.65;3.53;;;3.70;86.10;;;;;;5035054;28;20037;-71
2022/03/09 00:41:28;;;;;;;8.27;3.10;;;3.60;86.80;;;;;;5033501;28;20482;-71
2022/03/09 00:43:54;;;;;;;7.47;3.10;;;3.60;87.50;;;;;;5051334;28;20040;-71
2022/03/09 00:46:20;;;;;;;6.82;3.45;;;3.60;88.40;;;;;;5035262;28;20037;-71
2022/03/09 00:48:45;;;;;;;9.13;3.60;;;3.50;89.60;;;;;;5067009;28;20052;-71
2022/03/09 00:51:11;;;;;;;7.43;3.28;;;3.40;90.60;;;;;;5067752;28;20136;-71
2022/03/09 00:53:37;;;;;;;7.18;3.40;;;3.30;90.90;;;;;;5050576;28;20418;-71
2022/03/09 00:56:03;;;;;;;7.63;3.25;;;3.20;91.60;;;;;;5060881;28;20073;-71
2022/03/09 00:58:29;;;;;;;7.03;3.03;;;3.10;92.70;;;;;;5015100;28;20581;-71
2022/03/09 01:00:54;;;;;;;7.68;3.53;;;3.00;92.60;;;;;;5029229;28;20489;-71
2022/03/09 01:03:20;;;;;;;7.45;3.58;;;2.90;92.90;;;;;;5056015;28;20034;-71
2022/03/09 01:05:46;;;;;;;7.95;3.70;;;2.90;93.10;;;;;;5043116;28;20037;-71
2022/03/09 01:08:12;;;;;;;6.93;3.25;;;2.80;93.00;;;;;;5049368;28;20040;-71
2022/03/09 01:10:37;;;;;;;6.63;3.50;;;2.70;94.10;;;;;;5047409;28;20045;-71
2022/03/09 01:13:03;;;;;;;6.32;3.08;;;2.70;93.40;;;;;;5031391;28;20506;-71
2022/03/09 01:15:29;;;;;;;7.50;3.58;;;2.70;93.70;;;;;;5051345;28;20037;-71
2022/03/09 01:17:54;;;;;;;7.30;3.65;;;2.60;94.00;;;;;;5067177;28;20060;-71
2022/03/09 01:20:20;;;;;;;7.75;3.38;;;2.50;94.30;;;;;;5051231;28;20452;-71
2022/03/09 01:22:45;;;;;;;8.00;3.38;;;2.50;94.30;;;;;;5034132;28;20052;-71
2022/03/09 01:25:11;;;;;;;7.97;3.72;;;2.50;94.40;;;;;;5052514;28;20068;-71
2022/03/09 01:27:37;;;;;;;8.30;3.40;;;2.50;95.00;;;;;;5066323;28;20033;-71
2022/03/09 01:30:04;;;;;;;8.32;4.00;;;2.50;94.50;;;;;;5032575;28;20037;-71
2022/03/09 01:32:29;;;;;;;7.07;3.80;;;2.40;94.80;;;;;;5051219;28;20059;-71
2022/03/09 01:34:55;;;;;;;8.68;3.97;;;2.30;95.10;;;;;;5051748;28;20036;-71
2022/03/09 01:37:20;;;;;;;7.88;3.58;;;2.30;95.90;;;;;;5051799;28;20100;-71
2022/03/09 01:39:46;;;;;;;7.70;3.53;;;2.20;95.90;;;;;;5054054;28;20091;-71
2022/03/09 01:42:12;;;;;;;7.30;4.03;;;2.20;96.20;;;;;;5037800;28;20120;-71
2022/03/09 01:44:38;;;;;;;7.65;3.85;;;2.10;96.10;;;;;;5038126;28;20039;-71
2022/03/09 01:47:03;;;;;;;9.38;4.15;;;2.20;95.80;;;;;;5054088;28;20040;-70
2022/03/09 01:49:29;;;;;;;7.82;3.83;;;2.10;96.30;;;;;;5038028;28;20070;-70
2022/03/09 01:51:57;;;;;;;8.75;4.00;;;2.10;97.00;;;;;;5053822;28;20386;-70
2022/03/09 01:54:24;;;;;;;7.18;3.85;;;2.00;97.10;;;;;;5054723;28;20033;-70
2022/03/09 01:56:50;;;;;;;9.02;3.85;;;1.90;98.00;;;;;;5024517;28;20486;-71
2022/03/09 01:59:16;;;;;;;9.18;3.78;;;1.90;97.60;;;;;;5034443;28;20083;-70
2022/03/09 02:01:44;;;;;;;7.32;4.15;;;1.80;99.30;;;;;;5051623;28;20033;-71
2022/03/09 02:04:11;;;;;;;7.47;3.80;;;1.80;98.40;;;;;;5071231;28;20401;-70
2022/03/09 02:06:38;;;;;;;8.60;4.05;;;1.80;98.70;;;;;;5027692;28;20041;-70
2022/03/09 02:11:51;;;;;;;7.07;3.80;;;1.80;98.10;;;;;;5066727;28;20045;-71
2022/03/09 02:14:32;;;;;;;8.30;4.20;;;1.80;98.30;;;;;;5036746;28;20041;-70
2022/03/09 02:16:59;;;;;;;7.70;3.70;;;1.80;98.60;;;;;;5054010;28;20041;-70
2022/03/09 02:19:25;;;;;;;8.23;4.13;;;1.90;97.60;;;;;;5053295;28;20552;-70
2022/03/09 02:21:58;;;;;;;9.10;4.40;;;1.90;97.60;;;;;;5054297;28;20029;-70
2022/03/09 02:24:25;;;;;;;10.02;4.25;;;1.90;97.30;;;;;;5050610;28;20029;-71
2022/03/09 02:26:51;;;;;;;8.23;4.10;;;2.00;96.90;;;;;;5070726;28;20045;-70
2022/03/09 02:29:17;;;;;;;9.65;4.50;;;2.10;96.80;;;;;;5069689;28;20517;-70
2022/03/09 02:31:42;;;;;;;8.82;4.15;;;2.10;97.20;;;;;;5053055;28;20047;-70
2022/03/09 02:34:08;;;;;;;8.35;3.75;;;2.00;97.60;;;;;;5036464;28;20509;-70
2022/03/09 02:36:33;;;;;;;10.32;4.18;;;2.10;96.80;;;;;;5047144;28;20459;-70
2022/03/09 02:38:59;;;;;;;8.60;4.50;;;2.20;96.60;;;;;;5045220;28;20745;-70
2022/03/09 02:41:28;;;;;;;8.73;4.50;;;2.30;96.40;;;;;;5017435;28;20041;-70
2022/03/09 02:43:54;;;;;;;8.07;4.43;;;2.20;97.10;;;;;;5040901;28;20029;-70
2022/03/09 02:46:20;;;;;;;8.80;4.57;;;2.20;96.80;;;;;;5032487;28;20045;-70
2022/03/09 02:48:49;;;;;;;10.57;4.85;;;2.30;96.60;;;;;;5031943;28;20081;-70
2022/03/09 02:51:15;;;;;;;8.38;4.35;;;2.20;96.80;;;;;;5033346;28;20041;-71
2022/03/09 02:53:41;;;;;;;8.93;4.20;;;2.20;97.30;;;;;;5033389;28;20087;-70
2022/03/09 02:56:06;;;;;;;8.80;4.65;;;2.00;97.80;;;;;;5034550;28;20037;-70
2022/03/09 02:58:32;;;;;;;10.93;4.72;;;2.00;97.90;;;;;;5052309;28;20048;-70
2022/03/09 03:00:57;;;;;;;8.90;5.25;;;1.90;98.50;;;;;;5036090;28;20025;-70
2022/03/09 03:03:23;;;;;;;9.90;4.53;;;1.80;98.80;;;;;;5036077;28;20043;-70
2022/03/09 03:05:48;;;;;;;9.10;5.30;;;1.80;98.20;;;;;;5052862;28;20125;-70
2022/03/09 03:08:14;;;;;;;10.18;5.10;;;1.90;98.10;;;;;;5036485;28;20037;-70
2022/03/09 03:10:41;;;;;;;10.82;5.20;;;1.90;98.40;;;;;;5052338;28;20398;-70
2022/03/09 03:13:06;;;;;;;9.55;4.80;;;1.90;98.00;;;;;;5052629;28;20037;-70
2022/03/09 03:15:32;;;;;;;9.38;5.20;;;1.90;97.80;;;;;;5052196;28;20037;-70
2022/03/09 03:17:57;;;;;;;8.98;4.47;;;1.90;98.50;;;;;;5068644;28;20066;-70
2022/03/09 03:20:23;;;;;;;8.55;4.30;;;1.90;97.90;;;;;;5035665;28;20170;-70
2022/03/09 03:22:48;;;;;;;11.60;4.82;;;1.90;97.90;;;;;;5069091;28;20119;-70
2022/03/09 03:25:14;;;;;;;9.30;4.28;;;2.00;97.70;;;;;;5052771;28;20044;-70
2022/03/09 03:27:39;;;;;;;9.05;4.38;;;2.10;97.40;;;;;;5052103;28;20037;-70
2022/03/09 03:30:05;;;;;;;8.70;4.78;;;2.00;97.50;;;;;;5067269;28;20503;-70
2022/03/09 03:32:31;;;;;;;9.43;5.00;;;2.00;97.70;;;;;;5052692;28;20235;-70
2022/03/09 03:34:56;;;;;;;9.10;4.68;;;2.00;97.70;;;;;;5051890;28;20128;-71
2022/03/09 03:37:22;;;;;;;9.95;4.63;;;2.00;97.70;;;;;;5052496;28;20049;-70
2022/03/09 03:39:48;;;;;;;9.40;4.85;;;1.90;97.80;;;;;;5051885;28;20056;-70
2022/03/09 03:42:13;;;;;;;9.30;4.90;;;1.90;97.90;;;;;;5052428;28;20041;-70
2022/03/09 03:44:39;;;;;;;10.18;4.65;;;1.80;98.50;;;;;;5051723;28;20037;-70
2022/03/09 03:47:05;;;;;;;9.05;4.78;;;1.80;98.30;;;;;;5051939;28;20470;-70
2022/03/09 03:49:30;;;;;;;9.52;4.78;;;1.80;98.30;;;;;;5051902;28;20041;-70
2022/03/09 03:51:56;;;;;;;9.73;4.68;;;1.80;98.50;;;;;;5052387;28;20465;-70
2022/03/09 03:54:21;;;;;;;9.98;4.93;;;1.70;99.10;;;;;;5051878;28;20383;-70
2022/03/09 03:56:47;;;;;;;9.32;4.78;;;1.70;99.00;;;;;;5051325;28;20044;-70
2022/03/09 03:59:13;;;;;;;9.60;5.10;;;1.60;99.00;;;;;;5051053;28;20045;-70
2022/03/09 04:01:38;;;;;;;9.75;4.78;;;1.60;98.80;;;;;;5035674;28;20083;-70
2022/03/09 04:04:04;;;;;;;9.50;5.18;;;1.60;99.00;;;;;;5067087;28;20037;-70
2022/03/09 04:06:30;;;;;;;12.85;5.03;;;1.60;99.00;;;;;;5051552;28;20041;-70
2022/03/09 04:08:55;;;;;;;10.75;5.47;;;1.50;99.60;;;;;;5035437;28;20528;-70
2022/03/09 04:11:21;;;;;;;10.27;4.68;;;1.40;99.80;;;;;;5051193;28;20520;-70
2022/03/09 04:13:47;;;;;;;11.88;5.10;;;1.30;99.90;;;;;;5068731;28;20040;-70
2022/03/09 04:16:12;;;;;;;10.38;4.97;;;1.30;99.90;;;;;;5034808;28;20055;-70
2022/03/09 04:18:38;;;;;;;10.15;4.82;;;1.30;99.90;;;;;;5034660;28;20412;-70
2022/03/09 04:21:04;;;;;;;10.13;5.53;;;1.40;99.60;;;;;;5067919;28;20489;-70
2022/03/09 04:23:29;;;;;;;8.98;4.80;;;1.40;99.80;;;;;;5026774;28;20106;-70
2022/03/09 04:25:55;;;;;;;10.60;4.93;;;1.30;99.70;;;;;;5044409;28;20037;-70
2022/03/09 04:28:20;;;;;;;10.18;5.32;;;1.40;99.60;;;;;;5037977;28;20131;-70
2022/03/09 04:30:46;;;;;;;8.55;5.05;;;1.40;99.40;;;;;;5051253;28;20039;-70
2022/03/09 04:33:12;;;;;;;10.50;5.55;;;1.30;99.90;;;;;;5035500;28;20150;-70
2022/03/09 04:35:37;;;;;;;11.60;5.53;;;1.30;99.50;;;;;;5067630;28;20037;-69
2022/03/09 04:38:03;;;;;;;10.88;5.50;;;1.30;99.60;;;;;;5050981;28;20456;-70
2022/03/09 04:40:28;;;;;;;10.43;4.88;;;1.40;99.60;;;;;;5027049;28;20045;-70
2022/03/09 04:42:54;;;;;;;9.75;5.30;;;1.40;99.20;;;;;;5050652;28;20033;-70
2022/03/09 04:45:20;;;;;;;10.07;5.13;;;1.50;99.20;;;;;;5068396;28;20036;-70
2022/03/09 04:47:46;;;;;;;9.45;5.20;;;1.40;99.50;;;;;;5067922;28;20041;-70
2022/03/09 04:50:11;;;;;;;10.85;5.75;;;1.40;99.50;;;;;;5050842;28;20489;-70
2022/03/09 04:52:37;;;;;;;10.68;5.40;;;1.40;99.80;;;;;;5035100;28;20064;-70
2022/03/09 04:55:03;;;;;;;9.65;5.25;;;1.40;99.50;;;;;;5056663;28;20154;-70
2022/03/09 04:57:28;;;;;;;9.63;5.15;;;1.40;99.50;;;;;;5051480;28;20040;-70
2022/03/09 04:59:54;;;;;;;10.25;4.88;;;1.40;99.60;;;;;;5050425;28;20045;-70
2022/03/09 05:02:19;;;;;;;10.15;5.28;;;1.40;99.30;;;;;;5068213;28;20033;-70
2022/03/09 05:04:45;;;;;;;9.85;5.18;;;1.40;99.80;;;;;;5019870;28;20128;-70
2022/03/09 05:07:11;;;;;;;11.00;5.65;;;1.30;99.60;;;;;;5048158;28;20052;-70
2022/03/09 05:09:36;;;;;;;12.65;5.50;;;1.30;99.90;;;;;;5046194;28;20045;-70
2022/03/09 05:12:02;;;;;;;10.27;5.40;;;1.20;99.90;;;;;;5036683;28;20178;-70
2022/03/09 05:14:28;;;;;;;11.38;5.05;;;1.20;99.90;;;;;;5054501;28;20044;-70
2022/03/09 05:16:53;;;;;;;10.60;5.75;;;1.20;99.90;;;;;;5071237;28;20028;-70
2022/03/09 05:19:19;;;;;;;10.18;4.97;;;1.20;99.90;;;;;;5037847;28;20041;-70
2022/03/09 05:21:45;;;;;;;10.68;5.28;;;1.20;99.80;;;;;;5038290;28;20614;-70
2022/03/09 05:24:10;;;;;;;9.73;5.45;;;1.10;99.90;;;;;;5054632;28;20057;-70
2022/03/09 05:26:36;;;;;;;9.32;4.95;;;1.10;99.90;;;;;;5036599;28;20499;-70
2022/03/09 05:29:02;;;;;;;12.70;5.60;;;1.00;99.90;;;;;;5054148;28;20048;-70
2022/03/09 05:31:29;;;;;;;10.05;5.68;;;1.10;99.90;;;;;;5038368;28;20041;-70
2022/03/09 05:33:54;;;;;;;9.98;5.28;;;1.10;99.90;;;;;;5054376;28;20037;-70
2022/03/09 05:36:20;;;;;;;9.95;5.78;;;1.10;99.90;;;;;;5054759;28;20412;-70
2022/03/09 05:38:46;;;;;;;9.90;4.85;;;1.10;99.90;;;;;;5053234;28;20162;-70
2022/03/09 05:41:12;;;;;;;10.00;5.75;;;1.10;99.90;;;;;;5038666;28;20079;-70
2022/03/09 05:43:37;;;;;;;9.82;5.32;;;1.10;99.90;;;;;;5070676;28;20044;-70
2022/03/09 05:46:03;;;;;;;10.30;5.38;;;1.00;99.90;;;;;;5069265;28;20108;-70
2022/03/09 05:48:28;;;;;;;9.50;5.03;;;1.00;99.90;;;;;;5054950;28;20037;-70
2022/03/09 05:50:54;;;;;;;9.15;5.25;;;1.00;99.90;;;;;;5036220;28;20523;-70
2022/03/09 05:53:20;;;;;;;11.07;5.43;;;1.00;99.90;;;;;;5071208;28;20037;-70
2022/03/09 05:55:45;;;;;;;10.57;5.68;;;1.00;99.90;;;;;;5051546;28;20064;-70
2022/03/09 05:58:11;;;;;;;11.27;5.80;;;1.00;99.90;;;;;;5071313;28;20071;-70
2022/03/09 06:00:36;;;;;;;10.45;5.50;;;1.00;99.90;;;;;;5053728;28;20044;-70
2022/03/09 06:03:02;;;;;;;11.48;6.25;;;1.00;99.90;;;;;;5037757;28;20037;-70
2022/03/09 06:05:27;;;;;;;10.05;6.00;;;0.90;99.90;;;;;;5023780;28;20564;-70
2022/03/09 06:07:53;;;;;;;11.52;6.13;;;0.90;99.90;;;;;;5027815;28;20394;-70
2022/03/09 06:10:18;;;;;;;11.10;5.35;;;0.90;99.90;;;;;;5039609;28;20079;-70
2022/03/09 06:12:44;;;;;;;11.05;5.40;;;0.90;99.90;;;;;;5054218;28;20049;-70
2022/03/09 06:15:10;;;;;;;12.43;5.95;;;0.90;99.90;;;;;;5054774;28;20516;-70
2022/03/09 06:17:49;;;;;;;11.43;5.95;;;1.00;99.90;;;;;;5028703;28;20124;-70
2022/03/09 06:20:16;;;;;;;10.68;5.60;;;1.00;99.90;;;;;;5033601;28;20077;-70
2022/03/09 06:22:42;;;;;;;9.68;5.45;;;1.00;99.90;;;;;;5048178;28;20037;-70
2022/03/09 06:25:08;;;;;;;11.25;5.70;;;1.10;99.90;;;;;;5041594;28;20037;-70
2022/03/09 06:27:45;;;;;;;11.38;6.20;;;1.20;99.90;;;;;;5047152;28;20086;-69
2022/03/09 06:30:13;;;;;;;10.13;5.63;;;1.30;99.90;;;;;;5053403;28;20049;-70
2022/03/09 06:32:39;;;;;;;10.57;5.38;;;1.20;99.90;;;;;;5067831;28;20045;-70
2022/03/09 06:35:06;;;;;;;10.50;5.47;;;1.10;99.90;;;;;;5053621;28;20037;-69
2022/03/09 06:37:31;;;;;;;10.85;5.70;;;1.20;99.90;;;;;;5049555;28;20102;-70
2022/03/09 06:39:57;;;;;;;10.45;5.50;;;1.30;99.90;;;;;;5067608;28;20037;-70
2022/03/09 06:42:24;;;;;;;10.57;5.68;;;1.20;99.90;;;;;;5053404;28;20119;-69
2022/03/09 06:44:50;;;;;;;10.40;5.80;;;1.30;99.90;;;;;;5036082;28;20086;-70
2022/03/09 06:47:16;;;;;;;12.93;6.30;;;1.40;99.90;;;;;;5050486;28;20123;-70
2022/03/09 06:49:41;;;;;;;11.30;6.28;;;1.40;99.90;;;;;;5050691;28;20404;-70
2022/03/09 06:52:07;;;;;;;11.15;5.70;;;1.40;99.90;;;;;;5046458;28;20040;-70
2022/03/09 06:54:33;;;;;;;12.52;5.97;;;1.50;99.90;;;;;;5055797;28;20045;-70
2022/03/09 06:56:58;;;;;;;10.32;6.15;;;1.50;99.70;;;;;;5038302;28;20494;-69
2022/03/09 06:59:24;;;;;;;11.35;5.93;;;1.60;99.80;;;;;;5037957;28;20045;-70
2022/03/09 07:01:50;;;;;;;11.38;5.53;;;1.60;99.90;;;;;;5036834;28;20306;-70
2022/03/09 07:04:15;;;;;;;10.10;5.93;;;1.70;99.90;;;;;;5019772;28;20037;-70
2022/03/09 07:06:41;;;;;;;11.95;6.22;;;1.70;99.90;;;;;;5020809;28;20118;-70
2022/03/09 07:09:06;;;;;;;11.82;6.72;;;1.60;99.90;;;;;;5027495;28;20374;-70
2022/03/09 07:11:32;;;;;;;12.55;6.03;;;1.70;99.90;;;;;;5050554;28;20037;-70
2022/03/09 07:13:57;;;;;;;13.18;7.00;;;1.80;99.90;;;;;;5019822;28;20048;-70
2022/03/09 07:16:23;;;;;;;12.43;6.20;;;1.80;99.90;;;;;;5053868;28;20058;-70
2022/03/09 07:18:49;;;;;;;11.18;6.22;;;1.80;99.90;;;;;;5036866;28;20698;-70
2022/03/09 07:21:14;;;;;;;11.48;6.35;;;2.00;99.90;;;;;;5053542;28;20039;-70
2022/03/09 07:23:40;;;;;;;11.70;5.53;;;2.00;99.90;;;;;;5027677;28;20105;-70
2022/03/09 07:26:06;;;;;;;11.60;5.45;;;2.10;99.90;;;;;;5035046;28;20037;-70
2022/03/09 07:28:32;;;;;;;10.52;6.00;;;2.30;99.80;;;;;;5036511;28;20134;-70
2022/03/09 07:30:58;;;;;;;10.50;5.47;;;2.40;99.60;;;;;;5040482;28;20094;-70
2022/03/09 07:33:23;;;;;;;11.38;5.80;;;2.40;99.60;;;;;;5035828;28;20033;-70
2022/03/09 07:35:50;;;;;;;12.02;5.90;;;2.50;99.40;;;;;;5040632;28;20048;-70
2022/03/09 07:38:15;;;;;;;10.38;5.70;;;2.80;98.70;;;;;;5051336;28;20486;-70
2022/03/09 07:40:42;;;;;;;11.80;5.53;;;2.90;98.50;;;;;;5048881;28;20048;-70
2022/03/09 07:43:07;;;;;;;9.60;5.10;;;3.00;98.50;;;;;;5049134;28;20481;-70
2022/03/09 07:45:33;;;;;;;11.05;5.95;;;3.20;98.20;;;;;;5050454;28;20135;-70
2022/03/09 07:47:59;;;;;;;12.02;6.03;;;3.30;97.80;;;;;;5052128;28;20508;-81
2022/03/09 07:50:24;;;;;;;10.05;5.50;;;3.40;96.80;;;;;;5030240;28;20398;-75
2022/03/09 07:52:50;;;;;;;11.10;6.07;;;3.60;95.90;;;;;;5050351;28;20037;-72
2022/03/09 07:55:16;;;;;;;11.20;5.85;;;3.70;96.00;;;;;;5060286;28;20041;-73
2022/03/09 07:57:41;;;;;;;10.50;5.60;;;3.80;96.30;;;;;;5040791;28;20048;-71
2022/03/09 08:00:08;;;;;;;14.60;6.60;;;3.90;95.20;;;;;;5051924;28;20124;-71
2022/03/09 08:02:34;;;;;;;9.57;5.03;;;4.00;95.50;;;;;;5034795;28;20043;-71
2022/03/09 08:04:59;;;;;;;8.00;3.95;;;4.20;92.80;;;;;;5035303;28;20048;-71
2022/03/09 08:07:25;;;;;;;10.77;5.60;;;4.30;92.70;;;;;;5051620;28;20041;-71
2022/03/09 08:09:50;;;;;;;7.95;4.32;;;4.40;91.90;;;;;;5051644;28;20048;-71
2022/03/09 08:12:16;;;;;;;10.45;5.45;;;4.50;91.00;;;;;;5035391;28;20049;-71
2022/03/09 08:14:41;;;;;;;12.48;5.45;;;4.60;90.30;;;;;;5051541;28;20089;-71
2022/03/09 08:17:07;;;;;;;10.50;4.85;;;4.70;89.70;;;;;;5035150;28;20040;-71
2022/03/09 08:19:34;;;;;;;10.68;5.70;;;4.90;87.30;;;;;;5031752;28;20133;-71
2022/03/09 08:22:00;;;;;;;10.65;5.13;;;5.00;85.20;;;;;;5018610;28;20041;-71
2022/03/09 08:24:27;;;;;;;11.30;5.80;;;5.00;83.60;;;;;;5035008;28;20036;-71
2022/03/09 08:26:53;;;;;;;17.50;5.35;;;5.20;79.40;;;;;;5035169;28;20037;-71
2022/03/09 08:29:18;;;;;;;9.48;4.28;;;5.20;80.30;;;;;;5050946;28;20127;-71
2022/03/09 08:31:44;;;;;;;10.07;5.47;;;5.30;77.90;;;;;;5043050;28;20511;-71
2022/03/09 08:34:10;;;;;;;12.70;6.05;;;5.30;78.30;;;;;;5050007;28;20398;-71
2022/03/09 08:36:35;;;;;;;10.65;5.40;;;5.30;79.30;;;;;;5034728;28;20390;-71
2022/03/09 08:39:01;;;;;;;12.07;6.13;;;5.40;80.60;;;;;;5034151;28;20037;-71
2022/03/09 08:41:28;;;;;;;10.02;5.22;;;5.60;78.90;;;;;;5051610;28;20048;-71
2022/03/09 08:43:54;;;;;;;10.40;5.50;;;5.60;76.90;;;;;;5051121;28;20490;-71
2022/03/09 08:46:20;;;;;;;8.43;4.57;;;5.80;72.70;;;;;;5055338;28;20052;-71
2022/03/09 08:48:46;;;;;;;10.45;5.68;;;5.90;72.30;;;;;;5064469;28;20503;-72
2022/03/09 08:51:12;;;;;;;12.50;5.90;;;5.90;73.40;;;;;;5055228;28;20106;-72
2022/03/09 08:53:37;;;;;;;12.40;4.95;;;5.90;75.70;;;;;;5038835;28;20394;-72
2022/03/09 08:56:03;;;;;;;14.23;5.95;;;6.00;75.70;;;;;;5038146;28;20037;-71
2022/03/09 08:58:29;;;;;;;8.98;3.97;;;6.20;74.90;;;;;;5052641;28;20047;-71
2022/03/09 09:00:55;;;;;;;8.68;3.95;;;6.30;73.00;;;;;;5038563;28;20068;-71
2022/03/09 09:03:20;;;;;;;11.30;5.05;;;6.40;72.20;;;;;;5046144;28;20387;-71
2022/03/09 09:05:46;;;;;;;11.27;6.00;;;6.60;67.50;;;;;;5035780;28;20041;-71
2022/03/09 09:08:13;;;;;;;9.27;4.82;;;6.60;69.30;;;;;;5051791;28;20461;-71
2022/03/09 09:10:39;;;;;;;9.77;5.60;;;6.70;73.10;;;;;;5035242;28;20085;-71
2022/03/09 09:13:05;;;;;;;9.05;4.80;;;6.80;71.70;;;;;;5039796;28;20092;-71
2022/03/09 09:15:31;;;;;;;10.10;5.40;;;7.00;66.30;;;;;;5055067;28;20036;-71
2022/03/09 09:18:03;;;;;;;9.15;4.35;;;7.00;67.80;;;;;;5054723;28;20412;-71
2022/03/09 09:20:29;;;;;;;9.40;6.15;;;7.10;67.40;;;;;;5050719;28;20080;-72
2022/03/09 09:22:56;;;;;;;8.85;3.83;;;7.20;66.50;;;;;;5018126;28;20522;-72
2022/03/09 09:25:25;;;;;;;10.55;5.25;;;7.40;67.00;;;;;;5034940;28;20044;-72
2022/03/09 09:27:52;;;;;;;9.63;4.80;;;7.40;66.40;;;;;;5018174;28;20044;-72
2022/03/09 09:30:18;;;;;;;10.20;5.03;;;7.50;66.40;;;;;;5041336;28;20052;-72
2022/03/09 09:32:45;;;;;;;10.82;6.35;;;7.60;66.00;;;;;;5071065;28;20494;-72
2022/03/09 09:35:11;;;;;;;7.28;3.60;;;7.80;64.00;;;;;;5055092;28;20041;-72
2022/03/09 09:37:38;;;;;;;10.07;5.18;;;7.90;62.70;;;;;;5054256;28;20505;-72
2022/03/09 09:40:06;;;;;;;11.30;6.28;;;8.00;62.40;;;;;;5037614;28;20041;-72
2022/03/09 09:42:33;;;;;;;12.50;6.38;;;8.00;59.90;;;;;;5052447;28;20138;-72
2022/03/09 09:45:00;;;;;;;10.35;6.20;;;8.00;62.20;;;;;;5037989;28;20045;-72
2022/03/09 09:47:31;;;;;;;10.05;5.55;;;8.00;65.10;;;;;;5054074;28;20053;-72
2022/03/09 09:49:57;;;;;;;10.45;5.65;;;8.10;66.50;;;;;;5037033;28;20044;-72
2022/03/09 09:52:28;;;;;;;10.30;6.20;;;8.30;64.70;;;;;;5054711;28;20040;-72
2022/03/09 09:54:55;;;;;;;10.68;5.50;;;8.40;62.10;;;;;;5083122;28;20040;-72
2022/03/09 09:57:22;;;;;;;9.82;5.43;;;8.50;62.20;;;;;;5036859;28;20098;-72
2022/03/09 09:59:48;;;;;;;10.10;5.78;;;8.50;63.50;;;;;;5054467;28;20040;-72
2022/03/09 10:02:14;;;;;;;10.13;5.40;;;8.60;62.00;;;;;;5054065;28;20041;-72
2022/03/09 10:04:40;;;;;;;12.68;6.30;;;8.80;61.60;;;;;;5037229;28;20371;-72
2022/03/09 10:07:06;;;;;;;11.77;6.25;;;8.80;61.40;;;;;;5036750;28;20044;-72
2022/03/09 10:09:39;;;;;;;10.07;5.35;;;8.90;60.80;;;;;;5070596;28;20036;-72
2022/03/09 10:12:06;;;;;;;10.35;6.18;;;9.10;58.40;;;;;;5054274;28;20055;-72
2022/03/09 10:14:47;;;;;;;9.68;4.85;;;9.00;59.70;;;;;;5053715;28;20055;-72
2022/03/09 10:17:34;;;;;;;11.25;5.85;;;9.10;59.30;;;;;;5037464;28;20458;-72
2022/03/09 10:20:11;;;;;;;9.65;5.43;;;9.20;57.60;;;;;;5043927;28;20048;-72
2022/03/09 10:22:41;;;;;;;11.60;6.22;;;9.30;59.00;;;;;;5053957;28;20029;-72
2022/03/09 10:25:10;;;;;;;9.63;5.85;;;9.30;60.30;;;;;;5053596;28;20120;-72
2022/03/09 10:27:44;;;;;;;12.00;6.28;;;9.50;57.60;;;;;;5053863;28;20048;-73
2022/03/09 10:30:21;;;;;;;12.75;6.35;;;9.60;56.70;;;;;;5053781;28;20036;-72
2022/03/09 10:32:52;;;;;;;10.70;5.63;;;9.60;58.60;;;;;;5053203;28;20079;-72
2022/03/09 10:35:42;;;;;;;9.60;3.65;;;9.60;58.70;;;;;;5053385;28;20067;-72
2022/03/09 10:38:07;;;;;;;10.52;6.32;;;9.80;55.00;;;;;;5042391;28;20140;-72
2022/03/09 10:40:40;;;;;;;11.75;6.30;;;9.90;56.00;;;;;;5048055;28;20128;-72
2022/03/09 10:43:16;;;;;;;10.20;6.00;;;9.80;58.10;;;;;;5016632;28;20048;-72
2022/03/09 10:46:09;;;;;;;13.65;5.93;;;9.80;58.80;;;;;;5017148;28;20046;-72
2022/03/09 10:48:49;;;;;;;10.85;5.28;;;9.90;58.50;;;;;;5016763;28;20037;-72
2022/03/09 10:51:28;;;;;;;10.48;5.75;;;10.10;56.90;;;;;;5049711;28;20033;-72
2022/03/09 10:53:54;;;;;;;11.20;6.30;;;10.10;55.30;;;;;;5033393;28;20041;-72
2022/03/09 10:56:20;;;;;;;12.20;5.55;;;10.10;57.00;;;;;;5064462;28;20040;-73
2022/03/09 10:58:46;;;;;;;9.90;6.15;;;10.20;54.30;;;;;;5052882;28;20033;-72
2022/03/09 11:01:20;;;;;;;9.85;5.88;;;10.30;54.50;;;;;;5035030;28;20037;-73
2022/03/09 11:03:46;;;;;;;11.07;6.38;;;10.40;52.60;;;;;;5054614;28;20097;-72
2022/03/09 11:06:14;;;;;;;11.95;6.88;;;10.40;54.80;;;;;;5041813;28;20029;-73
2022/03/09 11:08:41;;;;;;;10.30;6.07;;;10.30;55.50;;;;;;5035643;28;20041;-72
2022/03/09 11:11:08;;;;;;;10.70;5.97;;;10.40;55.50;;;;;;5049486;28;20482;-73
2022/03/09 11:13:36;;;;;;;10.70;6.15;;;10.60;52.60;;;;;;5066194;28;20041;-72
2022/03/09 11:16:03;;;;;;;8.65;4.97;;;10.50;53.50;;;;;;5035872;28;20493;-73
2022/03/09 11:18:30;;;;;;;11.15;6.45;;;10.70;51.20;;;;;;5036231;28;20032;-72
2022/03/09 11:21:01;;;;;;;10.63;5.57;;;10.60;51.30;;;;;;5032348;28;20049;-73
2022/03/09 11:23:29;;;;;;;11.30;6.88;;;10.60;52.00;;;;;;5032450;28;20041;-72
2022/03/09 11:26:00;;;;;;;12.73;6.45;;;10.60;52.20;;;;;;5032883;28;20040;-72
2022/03/09 11:28:36;;;;;;;10.93;6.97;;;10.60;53.00;;;;;;5032477;28;20037;-72
2022/03/09 11:31:04;;;;;;;11.85;6.57;;;10.60;52.00;;;;;;5068353;28;20041;-73
2022/03/09 11:33:45;;;;;;;11.48;6.80;;;10.60;53.40;;;;;;5035423;28;20041;-72
2022/03/09 11:36:29;;;;;;;13.43;6.53;;;10.60;53.90;;;;;;5035727;28;20088;-72
2022/03/09 11:39:04;;;;;;;10.00;4.78;;;10.70;53.80;;;;;;5044499;28;20045;-73
2022/03/09 11:41:41;;;;;;;13.65;7.05;;;10.80;52.50;;;;;;5032399;28;20624;-73
2022/03/09 11:44:19;;;;;;;11.15;7.00;;;10.90;51.90;;;;;;5031972;28;20073;-72
2022/03/09 11:46:56;;;;;;;10.68;6.55;;;10.80;51.50;;;;;;5042196;28;20494;-72
2022/03/09 11:49:23;;;;;;;11.10;6.55;;;10.90;52.40;;;;;;5052214;28;20120;-72
2022/03/09 11:52:05;;;;;;;9.98;5.70;;;10.90;52.50;;;;;;5052072;28;20036;-73
2022/03/09 11:54:59;;;;;;;11.70;6.38;;;11.10;51.10;;;;;;5051747;28;20144;-73
2022/03/09 11:57:45;;;;;;;10.77;6.93;;;11.00;51.00;;;;;;5034096;28;20438;-72
2022/03/09 12:00:14;;;;;;;10.32;5.65;;;11.20;49.80;;;;;;5027868;28;20165;-72
2022/03/09 12:02:40;;;;;;;11.63;6.78;;;11.10;50.30;;;;;;5040105;28;20033;-73
2022/03/09 12:05:08;;;;;;;11.98;6.75;;;11.20;48.60;;;;;;5051560;28;20033;-72
2022/03/09 12:07:35;;;;;;;12.60;6.70;;;11.20;50.70;;;;;;5035713;28;20110;-73
2022/03/09 12:10:04;;;;;;;10.00;5.95;;;11.20;51.50;;;;;;5053908;28;20072;-73
2022/03/09 12:12:32;;;;;;;8.85;5.63;;;11.20;50.50;;;;;;5052290;28;20076;-73
2022/03/09 12:15:09;;;;;;;11.85;7.07;;;11.30;50.10;;;;;;5037201;28;20087;-72
2022/03/09 12:17:48;;;;;;;11.85;7.15;;;11.30;53.00;;;;;;5051789;28;20044;-72
2022/03/09 12:20:20;;;;;;;10.82;7.03;;;11.20;53.90;;;;;;5045325;28;20056;-73
2022/03/09 12:23:01;;;;;;;11.77;6.63;;;11.30;53.20;;;;;;5051810;28;20048;-72
2022/03/09 12:25:49;;;;;;;10.18;6.47;;;11.40;53.10;;;;;;5051898;28;20040;-73
2022/03/09 12:28:24;;;;;;;12.65;6.80;;;11.40;53.30;;;;;;5051262;28;20040;-73
2022/03/09 12:30:52;;;;;;;8.30;4.05;;;11.40;53.30;;;;;;5051623;28;20048;-73
2022/03/09 12:33:26;;;;;;;11.02;6.50;;;11.50;51.20;;;;;;5035189;28;20044;-73
2022/03/09 12:35:53;;;;;;;11.95;6.97;;;11.50;50.20;;;;;;5034748;28;20379;-72
2022/03/09 12:38:19;;;;;;;11.85;7.18;;;11.50;51.80;;;;;;5047666;28;20053;-73
2022/03/09 12:40:45;;;;;;;13.18;7.28;;;11.60;51.40;;;;;;5051570;28;20045;-77
2022/03/09 12:43:13;;;;;;;12.30;7.05;;;11.60;51.60;;;;;;5063615;28;20037;-73
2022/03/09 12:45:55;;;;;;;9.00;4.75;;;11.60;51.70;;;;;;5026312;28;20040;-73
2022/03/09 12:48:22;;;;;;;11.27;5.80;;;11.70;46.00;;;;;;5027762;28;20572;-72
2022/03/09 12:50:48;;;;;;;10.63;6.60;;;11.70;45.20;;;;;;5051904;28;20064;-73
2022/03/09 12:53:21;;;;;;;11.27;7.05;;;11.80;47.20;;;;;;5050604;28;20037;-73